sensor_id;sensor_type;location;lat;lon;timestamp;temperature;humidity
11961;DHT22;6040;49.358;11.140;2022-10-16T00:01:05;14.70;99.90
11961;DHT22;6040;49.358;11.140;2022-10-16T00:03:33;16.40;99.90
11961;DHT22;6040;49.358;11.140;2022-10-16T00:06:01;15.50;99.90
11961;DHT22;6040;49.358;11.140;2022-10-16T00:08:28;14.70;99.90
11961;DHT22;6040;49.358;11.140;2022-10-16T00:10:59;14.60;99.90
11961;DHT22;6040;49.358;11.140;2022-10-16T00:13:28;14.60;99.90
11961;DHT22;6040;49.358;11.140;2022-10-16T00:15:56;14.60;99.90
11961;DHT22;6040;49.358;11.140;2022-10-16T00:18:23;14.60;99.90
11961;DHT22;6040;49.358;11.140;2022-10-16T00:20:50;14.70;99.90
11961;DHT22;6040;49.358;11.140;2022-10-16T00:23:17;14.60;99.90
11961;DHT22;6040;49.358;11.140;2022-10-16T00:25:44;14.60;99.90
11961;DHT22;6040;49.358;11.140;2022-10-16T00:28:11;14.60;99.90
11961;DHT22;6040;49.358;11.140;2022-10-16T00:30:40;14.60;99.90
11961;DHT22;6040;49.358;11.140;2022-10-16T00:33:06;14.60;99.90
11961;DHT22;6040;49.358;11.140;2022-10-16T00:35:33;14.60;99.90
11961;DHT22;6040;49.358;11.140;2022-10-16T00:38:00;14.60;99.90
11961;DHT22;6040;49.358;11.140;2022-10-16T00:40:27;14.60;99.90
11961;DHT22;6040;49.358;11.140;2022-10-16T00:42:54;14.60;99.90
11961;DHT22;6040;49.358;11.140;2022-10-16T00:45:21;15.10;99.90
11961;DHT22;6040;49.358;11.140;2022-10-16T00:47:51;15.60;99.90
11961;DHT22;6040;49.358;11.140;2022-10-16T00:50:24;14.60;99.90
11961;DHT22;6040;49.358;11.140;2022-10-16T00:52:54;14.60;99.90
11961;DHT22;6040;49.358;11.140;2022-10-16T00:55:21;16.30;99.90
11961;DHT22;6040;49.358;11.140;2022-10-16T00:57:50;14.60;99.90
11961;DHT22;6040;49.358;11.140;2022-10-16T01:00:20;14.50;99.90
11961;DHT22;6040;49.358;11.140;2022-10-16T01:02:53;14.50;99.90
11961;DHT22;6040;49.358;11.140;2022-10-16T01:05:21;14.50;99.90
11961;DHT22;6040;49.358;11.140;2022-10-16T01:07:53;14.50;99.90
11961;DHT22;6040;49.358;11.140;2022-10-16T01:10:27;14.50;99.90
11961;DHT22;6040;49.358;11.140;2022-10-16T01:13:00;14.40;99.90
11961;DHT22;6040;49.358;11.140;2022-10-16T01:15:32;14.60;99.90
11961;DHT22;6040;49.358;11.140;2022-10-16T01:18:05;14.50;99.90
11961;DHT22;6040;49.358;11.140;2022-10-16T01:20:37;14.50;99.90
11961;DHT22;6040;49.358;11.140;2022-10-16T01:23:21;14.50;99.90
11961;DHT22;6040;49.358;11.140;2022-10-16T01:26:11;14.40;99.90
11961;DHT22;6040;49.358;11.140;2022-10-16T01:28:45;14.40;99.90
11961;DHT22;6040;49.358;11.140;2022-10-16T01:31:15;14.50;99.90
11961;DHT22;6040;49.358;11.140;2022-10-16T01:33:45;16.00;99.90
11961;DHT22;6040;49.358;11.140;2022-10-16T01:36:14;14.40;99.90
11961;DHT22;6040;49.358;11.140;2022-10-16T01:38:44;14.40;99.90
11961;DHT22;6040;49.358;11.140;2022-10-16T01:41:17;14.40;99.90
11961;DHT22;6040;49.358;11.140;2022-10-16T01:43:48;14.40;99.90
11961;DHT22;6040;49.358;11.140;2022-10-16T01:46:20;14.40;99.90
11961;DHT22;6040;49.358;11.140;2022-10-16T01:48:48;14.40;99.90
11961;DHT22;6040;49.358;11.140;2022-10-16T01:51:17;14.40;99.90
11961;DHT22;6040;49.358;11.140;2022-10-16T01:53:48;14.40;99.90
11961;DHT22;6040;49.358;11.140;2022-10-16T01:56:15;15.00;99.90
11961;DHT22;6040;49.358;11.140;2022-10-16T01:58:48;14.60;99.90
11961;DHT22;6040;49.358;11.140;2022-10-16T02:01:19;15.10;99.90
11961;DHT22;6040;49.358;11.140;2022-10-16T02:03:49;14.40;99.90
11961;DHT22;6040;49.358;11.140;2022-10-16T02:06:18;14.50;99.90
11961;DHT22;6040;49.358;11.140;2022-10-16T02:08:45;14.50;99.90
11961;DHT22;6040;49.358;11.140;2022-10-16T02:11:12;14.50;99.90
11961;DHT22;6040;49.358;11.140;2022-10-16T02:13:42;14.50;99.90
11961;DHT22;6040;49.358;11.140;2022-10-16T02:16:13;14.50;99.90
11961;DHT22;6040;49.358;11.140;2022-10-16T02:18:41;14.60;99.90
11961;DHT22;6040;49.358;11.140;2022-10-16T02:21:14;14.50;99.90
11961;DHT22;6040;49.358;11.140;2022-10-16T02:23:48;14.50;99.90
11961;DHT22;6040;49.358;11.140;2022-10-16T02:26:22;14.60;99.90
11961;DHT22;6040;49.358;11.140;2022-10-16T02:28:54;15.30;99.90
11961;DHT22;6040;49.358;11.140;2022-10-16T02:31:26;14.60;99.90
11961;DHT22;6040;49.358;11.140;2022-10-16T02:33:55;16.30;99.90
11961;DHT22;6040;49.358;11.140;2022-10-16T02:36:23;14.60;99.90
11961;DHT22;6040;49.358;11.140;2022-10-16T02:38:50;14.60;99.90
11961;DHT22;6040;49.358;11.140;2022-10-16T02:41:18;14.60;99.90
11961;DHT22;6040;49.358;11.140;2022-10-16T02:43:46;14.50;99.90
11961;DHT22;6040;49.358;11.140;2022-10-16T02:46:14;14.50;99.90
11961;DHT22;6040;49.358;11.140;2022-10-16T02:48:42;16.30;99.90
11961;DHT22;6040;49.358;11.140;2022-10-16T02:51:09;14.70;99.90
11961;DHT22;6040;49.358;11.140;2022-10-16T02:53:36;15.00;99.90
11961;DHT22;6040;49.358;11.140;2022-10-16T02:56:03;14.60;99.90
11961;DHT22;6040;49.358;11.140;2022-10-16T02:58:30;14.60;99.90
11961;DHT22;6040;49.358;11.140;2022-10-16T03:00:57;14.60;99.90
11961;DHT22;6040;49.358;11.140;2022-10-16T03:03:24;14.60;99.90
11961;DHT22;6040;49.358;11.140;2022-10-16T03:05:52;14.60;99.90
11961;DHT22;6040;49.358;11.140;2022-10-16T03:08:18;14.60;99.90
11961;DHT22;6040;49.358;11.140;2022-10-16T03:10:49;14.60;99.90
11961;DHT22;6040;49.358;11.140;2022-10-16T03:13:15;15.60;99.90
11961;DHT22;6040;49.358;11.140;2022-10-16T03:15:43;14.60;99.90
11961;DHT22;6040;49.358;11.140;2022-10-16T03:18:10;14.60;99.90
11961;DHT22;6040;49.358;11.140;2022-10-16T03:20:36;14.60;99.90
11961;DHT22;6040;49.358;11.140;2022-10-16T03:23:05;14.60;99.90
11961;DHT22;6040;49.358;11.140;2022-10-16T03:25:33;14.60;99.90
11961;DHT22;6040;49.358;11.140;2022-10-16T03:28:00;14.60;99.90
11961;DHT22;6040;49.358;11.140;2022-10-16T03:30:27;14.50;99.90
11961;DHT22;6040;49.358;11.140;2022-10-16T03:32:54;14.60;99.90
11961;DHT22;6040;49.358;11.140;2022-10-16T03:35:21;14.60;99.90
11961;DHT22;6040;49.358;11.140;2022-10-16T03:37:47;14.60;99.90
11961;DHT22;6040;49.358;11.140;2022-10-16T03:40:16;14.70;99.90
11961;DHT22;6040;49.358;11.140;2022-10-16T03:42:43;14.60;99.90
11961;DHT22;6040;49.358;11.140;2022-10-16T03:45:11;14.70;99.90
11961;DHT22;6040;49.358;11.140;2022-10-16T03:47:38;14.60;99.90
11961;DHT22;6040;49.358;11.140;2022-10-16T03:50:05;14.60;99.90
11961;DHT22;6040;49.358;11.140;2022-10-16T03:52:32;14.60;99.90
11961;DHT22;6040;49.358;11.140;2022-10-16T03:54:59;14.60;99.90
11961;DHT22;6040;49.358;11.140;2022-10-16T03:57:27;14.60;99.90
11961;DHT22;6040;49.358;11.140;2022-10-16T03:59:54;14.60;99.90
11961;DHT22;6040;49.358;11.140;2022-10-16T04:02:21;14.60;99.90
11961;DHT22;6040;49.358;11.140;2022-10-16T04:04:48;16.30;99.90
11961;DHT22;6040;49.358;11.140;2022-10-16T04:07:14;14.60;99.90
11961;DHT22;6040;49.358;11.140;2022-10-16T04:09:41;14.60;99.90
11961;DHT22;6040;49.358;11.140;2022-10-16T04:12:08;15.60;99.90
11961;DHT22;6040;49.358;11.140;2022-10-16T04:14:36;14.60;99.90
11961;DHT22;6040;49.358;11.140;2022-10-16T04:17:03;14.60;99.90
11961;DHT22;6040;49.358;11.140;2022-10-16T04:19:30;15.70;99.90
11961;DHT22;6040;49.358;11.140;2022-10-16T04:21:57;14.60;99.90
11961;DHT22;6040;49.358;11.140;2022-10-16T04:24:23;14.90;99.90
11961;DHT22;6040;49.358;11.140;2022-10-16T04:26:50;14.60;99.90
11961;DHT22;6040;49.358;11.140;2022-10-16T04:29:17;14.60;99.90
11961;DHT22;6040;49.358;11.140;2022-10-16T04:31:46;14.60;99.90
11961;DHT22;6040;49.358;11.140;2022-10-16T04:34:13;14.50;99.90
11961;DHT22;6040;49.358;11.140;2022-10-16T04:36:39;14.60;99.90
11961;DHT22;6040;49.358;11.140;2022-10-16T04:39:06;14.50;99.90
11961;DHT22;6040;49.358;11.140;2022-10-16T04:41:33;14.50;99.90
11961;DHT22;6040;49.358;11.140;2022-10-16T04:44:00;14.50;99.90
11961;DHT22;6040;49.358;11.140;2022-10-16T04:46:27;14.60;99.90
11961;DHT22;6040;49.358;11.140;2022-10-16T04:48:55;14.50;99.90
11961;DHT22;6040;49.358;11.140;2022-10-16T04:51:21;14.50;99.90
11961;DHT22;6040;49.358;11.140;2022-10-16T04:53:48;14.50;99.90
11961;DHT22;6040;49.358;11.140;2022-10-16T04:56:15;14.50;99.90
11961;DHT22;6040;49.358;11.140;2022-10-16T04:58:42;14.50;99.90
11961;DHT22;6040;49.358;11.140;2022-10-16T05:01:09;15.60;99.90
11961;DHT22;6040;49.358;11.140;2022-10-16T05:03:35;15.40;99.90
11961;DHT22;6040;49.358;11.140;2022-10-16T05:06:05;14.50;99.90
11961;DHT22;6040;49.358;11.140;2022-10-16T05:08:31;14.50;99.90
11961;DHT22;6040;49.358;11.140;2022-10-16T05:10:58;14.50;99.90
11961;DHT22;6040;49.358;11.140;2022-10-16T05:13:25;14.40;99.90
11961;DHT22;6040;49.358;11.140;2022-10-16T05:15:52;14.40;99.90
11961;DHT22;6040;49.358;11.140;2022-10-16T05:18:19;14.40;99.90
11961;DHT22;6040;49.358;11.140;2022-10-16T05:20:45;14.40;99.90
11961;DHT22;6040;49.358;11.140;2022-10-16T05:23:14;14.40;99.90
11961;DHT22;6040;49.358;11.140;2022-10-16T05:25:40;14.70;99.90
11961;DHT22;6040;49.358;11.140;2022-10-16T05:28:07;14.40;99.90
11961;DHT22;6040;49.358;11.140;2022-10-16T05:30:34;15.30;99.90
11961;DHT22;6040;49.358;11.140;2022-10-16T05:33:03;15.20;99.90
11961;DHT22;6040;49.358;11.140;2022-10-16T05:35:30;15.40;99.90
11961;DHT22;6040;49.358;11.140;2022-10-16T05:37:56;14.40;99.90
11961;DHT22;6040;49.358;11.140;2022-10-16T05:40:25;14.40;99.90
11961;DHT22;6040;49.358;11.140;2022-10-16T05:42:55;16.00;99.90
11961;DHT22;6040;49.358;11.140;2022-10-16T05:45:21;14.50;99.90
11961;DHT22;6040;49.358;11.140;2022-10-16T05:47:48;14.30;99.90
11961;DHT22;6040;49.358;11.140;2022-10-16T05:50:15;14.30;99.90
11961;DHT22;6040;49.358;11.140;2022-10-16T05:52:42;14.30;99.90
11961;DHT22;6040;49.358;11.140;2022-10-16T05:55:09;14.30;99.90
11961;DHT22;6040;49.358;11.140;2022-10-16T05:57:37;14.30;99.90
11961;DHT22;6040;49.358;11.140;2022-10-16T06:00:05;14.40;99.90
11961;DHT22;6040;49.358;11.140;2022-10-16T06:02:32;14.30;99.90
11961;DHT22;6040;49.358;11.140;2022-10-16T06:04:58;14.40;99.90
11961;DHT22;6040;49.358;11.140;2022-10-16T06:07:25;14.40;99.90
11961;DHT22;6040;49.358;11.140;2022-10-16T06:09:53;14.50;99.90
11961;DHT22;6040;49.358;11.140;2022-10-16T06:12:20;14.50;99.90
11961;DHT22;6040;49.358;11.140;2022-10-16T06:14:48;14.60;99.90
11961;DHT22;6040;49.358;11.140;2022-10-16T06:17:15;14.80;99.90
11961;DHT22;6040;49.358;11.140;2022-10-16T06:19:42;14.80;99.90
11961;DHT22;6040;49.358;11.140;2022-10-16T06:22:08;15.20;99.90
11961;DHT22;6040;49.358;11.140;2022-10-16T06:24:35;14.90;99.90
11961;DHT22;6040;49.358;11.140;2022-10-16T06:27:03;15.50;99.90
11961;DHT22;6040;49.358;11.140;2022-10-16T06:29:30;15.20;99.90
11961;DHT22;6040;49.358;11.140;2022-10-16T06:31:58;15.20;99.90
11961;DHT22;6040;49.358;11.140;2022-10-16T06:34:25;16.10;99.90
11961;DHT22;6040;49.358;11.140;2022-10-16T06:36:51;15.30;99.90
11961;DHT22;6040;49.358;11.140;2022-10-16T06:39:18;16.10;99.90
11961;DHT22;6040;49.358;11.140;2022-10-16T06:41:45;15.40;99.90
11961;DHT22;6040;49.358;11.140;2022-10-16T06:44:12;15.50;99.90
11961;DHT22;6040;49.358;11.140;2022-10-16T06:46:38;15.80;99.90
11961;DHT22;6040;49.358;11.140;2022-10-16T06:49:06;17.00;99.90
11961;DHT22;6040;49.358;11.140;2022-10-16T06:51:33;18.40;99.90
11961;DHT22;6040;49.358;11.140;2022-10-16T06:54:02;19.70;99.90
11961;DHT22;6040;49.358;11.140;2022-10-16T06:56:30;20.70;99.90
11961;DHT22;6040;49.358;11.140;2022-10-16T06:58:57;21.20;99.90
11961;DHT22;6040;49.358;11.140;2022-10-16T07:01:25;20.60;99.90
11961;DHT22;6040;49.358;11.140;2022-10-16T07:03:52;19.90;99.90
11961;DHT22;6040;49.358;11.140;2022-10-16T07:06:23;19.30;99.90
11961;DHT22;6040;49.358;11.140;2022-10-16T07:08:50;18.60;99.90
11961;DHT22;6040;49.358;11.140;2022-10-16T07:11:18;18.10;99.90
11961;DHT22;6040;49.358;11.140;2022-10-16T07:13:45;17.60;99.90
11961;DHT22;6040;49.358;11.140;2022-10-16T07:16:14;17.20;99.90
11961;DHT22;6040;49.358;11.140;2022-10-16T07:18:43;17.00;99.90
11961;DHT22;6040;49.358;11.140;2022-10-16T07:21:13;18.00;99.90
11961;DHT22;6040;49.358;11.140;2022-10-16T07:23:42;16.60;99.90
11961;DHT22;6040;49.358;11.140;2022-10-16T07:26:09;16.50;99.90
11961;DHT22;6040;49.358;11.140;2022-10-16T07:28:37;16.40;99.90
11961;DHT22;6040;49.358;11.140;2022-10-16T07:31:06;16.30;99.90
11961;DHT22;6040;49.358;11.140;2022-10-16T07:33:34;16.30;99.90
11961;DHT22;6040;49.358;11.140;2022-10-16T07:36:01;16.20;99.90
11961;DHT22;6040;49.358;11.140;2022-10-16T07:38:28;16.10;99.90
11961;DHT22;6040;49.358;11.140;2022-10-16T07:41:00;16.20;99.90
11961;DHT22;6040;49.358;11.140;2022-10-16T07:43:28;16.20;99.90
11961;DHT22;6040;49.358;11.140;2022-10-16T07:45:55;16.10;99.90
11961;DHT22;6040;49.358;11.140;2022-10-16T07:48:23;16.10;99.90
11961;DHT22;6040;49.358;11.140;2022-10-16T07:50:50;16.00;99.90
11961;DHT22;6040;49.358;11.140;2022-10-16T07:53:17;16.10;99.90
11961;DHT22;6040;49.358;11.140;2022-10-16T07:55:44;16.10;99.90
11961;DHT22;6040;49.358;11.140;2022-10-16T07:58:12;16.50;99.90
11961;DHT22;6040;49.358;11.140;2022-10-16T08:00:39;16.10;99.90
11961;DHT22;6040;49.358;11.140;2022-10-16T08:03:06;16.10;99.90
11961;DHT22;6040;49.358;11.140;2022-10-16T08:05:33;16.10;99.90
11961;DHT22;6040;49.358;11.140;2022-10-16T08:08:01;16.10;99.90
11961;DHT22;6040;49.358;11.140;2022-10-16T08:10:29;16.10;99.90
11961;DHT22;6040;49.358;11.140;2022-10-16T08:12:57;16.20;99.90
11961;DHT22;6040;49.358;11.140;2022-10-16T08:15:25;16.50;99.90
11961;DHT22;6040;49.358;11.140;2022-10-16T08:17:57;16.20;99.90
11961;DHT22;6040;49.358;11.140;2022-10-16T08:20:24;16.30;99.90
11961;DHT22;6040;49.358;11.140;2022-10-16T08:22:51;16.40;99.90
11961;DHT22;6040;49.358;11.140;2022-10-16T08:25:17;16.60;99.90
11961;DHT22;6040;49.358;11.140;2022-10-16T08:27:44;16.70;99.90
11961;DHT22;6040;49.358;11.140;2022-10-16T08:30:13;16.90;99.90
11961;DHT22;6040;49.358;11.140;2022-10-16T08:32:41;16.90;99.90
11961;DHT22;6040;49.358;11.140;2022-10-16T08:35:09;17.00;99.90
11961;DHT22;6040;49.358;11.140;2022-10-16T08:37:36;17.10;99.90
11961;DHT22;6040;49.358;11.140;2022-10-16T08:40:04;17.10;99.90
11961;DHT22;6040;49.358;11.140;2022-10-16T08:42:42;17.20;99.90
11961;DHT22;6040;49.358;11.140;2022-10-16T08:45:25;17.30;99.90
11961;DHT22;6040;49.358;11.140;2022-10-16T08:48:05;17.70;99.90
11961;DHT22;6040;49.358;11.140;2022-10-16T08:50:38;18.00;99.90
11961;DHT22;6040;49.358;11.140;2022-10-16T08:53:05;18.60;99.90
11961;DHT22;6040;49.358;11.140;2022-10-16T08:55:38;18.90;99.90
11961;DHT22;6040;49.358;11.140;2022-10-16T08:58:12;19.00;99.90
11961;DHT22;6040;49.358;11.140;2022-10-16T09:00:40;18.90;99.90
11961;DHT22;6040;49.358;11.140;2022-10-16T09:03:17;18.60;99.90
11961;DHT22;6040;49.358;11.140;2022-10-16T09:09:06;18.60;99.90
11961;DHT22;6040;49.358;11.140;2022-10-16T09:11:44;18.50;99.90
11961;DHT22;6040;49.358;11.140;2022-10-16T09:14:29;18.60;99.90
11961;DHT22;6040;49.358;11.140;2022-10-16T09:17:12;18.70;99.90
11961;DHT22;6040;49.358;11.140;2022-10-16T09:19:48;18.80;99.90
11961;DHT22;6040;49.358;11.140;2022-10-16T09:22:26;19.10;99.90
11961;DHT22;6040;49.358;11.140;2022-10-16T09:24:54;19.20;99.90
11961;DHT22;6040;49.358;11.140;2022-10-16T09:27:21;19.30;99.90
11961;DHT22;6040;49.358;11.140;2022-10-16T09:29:48;19.20;99.90
11961;DHT22;6040;49.358;11.140;2022-10-16T09:32:18;19.30;99.90
11961;DHT22;6040;49.358;11.140;2022-10-16T09:34:49;19.40;99.90
11961;DHT22;6040;49.358;11.140;2022-10-16T09:37:18;19.40;99.90
11961;DHT22;6040;49.358;11.140;2022-10-16T09:39:47;19.30;99.90
11961;DHT22;6040;49.358;11.140;2022-10-16T09:42:16;19.10;99.90
11961;DHT22;6040;49.358;11.140;2022-10-16T09:44:47;18.90;99.90
11961;DHT22;6040;49.358;11.140;2022-10-16T09:47:17;18.80;99.90
11961;DHT22;6040;49.358;11.140;2022-10-16T09:49:53;18.70;99.90
11961;DHT22;6040;49.358;11.140;2022-10-16T09:52:22;18.70;99.90
11961;DHT22;6040;49.358;11.140;2022-10-16T09:54:50;18.60;99.90
11961;DHT22;6040;49.358;11.140;2022-10-16T09:57:17;18.50;99.90
11961;DHT22;6040;49.358;11.140;2022-10-16T09:59:48;18.50;99.90
11961;DHT22;6040;49.358;11.140;2022-10-16T10:02:17;18.50;99.90
11961;DHT22;6040;49.358;11.140;2022-10-16T10:04:49;18.50;99.90
11961;DHT22;6040;49.358;11.140;2022-10-16T10:07:23;18.70;99.90
11961;DHT22;6040;49.358;11.140;2022-10-16T10:09:50;18.90;99.90
11961;DHT22;6040;49.358;11.140;2022-10-16T10:12:19;19.20;99.90
11961;DHT22;6040;49.358;11.140;2022-10-16T10:14:48;19.30;99.90
11961;DHT22;6040;49.358;11.140;2022-10-16T10:17:18;19.40;99.90
11961;DHT22;6040;49.358;11.140;2022-10-16T10:19:48;19.50;99.90
11961;DHT22;6040;49.358;11.140;2022-10-16T10:22:31;19.60;99.90
11961;DHT22;6040;49.358;11.140;2022-10-16T10:28:18;20.00;99.90
11961;DHT22;6040;49.358;11.140;2022-10-16T10:30:54;20.00;99.90
11961;DHT22;6040;49.358;11.140;2022-10-16T10:33:28;20.00;99.90
11961;DHT22;6040;49.358;11.140;2022-10-16T10:36:08;20.10;99.90
11961;DHT22;6040;49.358;11.140;2022-10-16T10:38:46;20.00;99.90
11961;DHT22;6040;49.358;11.140;2022-10-16T10:41:52;20.10;99.90
11961;DHT22;6040;49.358;11.140;2022-10-16T10:44:28;20.10;99.90
11961;DHT22;6040;49.358;11.140;2022-10-16T10:47:06;20.20;99.90
11961;DHT22;6040;49.358;11.140;2022-10-16T10:49:48;20.30;99.90
11961;DHT22;6040;49.358;11.140;2022-10-16T10:52:29;20.40;99.90
11961;DHT22;6040;49.358;11.140;2022-10-16T10:55:09;20.60;99.90
11961;DHT22;6040;49.358;11.140;2022-10-16T10:57:40;20.70;99.90
11961;DHT22;6040;49.358;11.140;2022-10-16T11:00:17;20.80;99.90
11961;DHT22;6040;49.358;11.140;2022-10-16T11:02:48;20.90;99.90
11961;DHT22;6040;49.358;11.140;2022-10-16T11:05:33;21.00;99.90
11961;DHT22;6040;49.358;11.140;2022-10-16T11:08:10;21.00;99.90
11961;DHT22;6040;49.358;11.140;2022-10-16T11:10:47;20.90;99.90
11961;DHT22;6040;49.358;11.140;2022-10-16T11:13:26;20.60;99.90
11961;DHT22;6040;49.358;11.140;2022-10-16T11:15:58;20.50;99.90
11961;DHT22;6040;49.358;11.140;2022-10-16T11:18:30;20.50;99.90
11961;DHT22;6040;49.358;11.140;2022-10-16T11:21:04;20.50;99.90
11961;DHT22;6040;49.358;11.140;2022-10-16T11:23:36;20.50;99.90
11961;DHT22;6040;49.358;11.140;2022-10-16T11:26:11;20.50;99.90
11961;DHT22;6040;49.358;11.140;2022-10-16T11:28:45;20.50;99.90
11961;DHT22;6040;49.358;11.140;2022-10-16T11:31:17;20.50;99.90
11961;DHT22;6040;49.358;11.140;2022-10-16T11:33:49;20.60;99.90
11961;DHT22;6040;49.358;11.140;2022-10-16T11:36:20;20.60;99.90
11961;DHT22;6040;49.358;11.140;2022-10-16T11:38:51;20.80;99.90
11961;DHT22;6040;49.358;11.140;2022-10-16T11:41:26;21.00;99.90
11961;DHT22;6040;49.358;11.140;2022-10-16T11:44:06;21.10;99.90
11961;DHT22;6040;49.358;11.140;2022-10-16T11:46:38;21.40;99.90
11961;DHT22;6040;49.358;11.140;2022-10-16T11:49:11;21.50;99.90
11961;DHT22;6040;49.358;11.140;2022-10-16T11:51:42;21.50;99.90
11961;DHT22;6040;49.358;11.140;2022-10-16T11:54:18;21.80;99.90
11961;DHT22;6040;49.358;11.140;2022-10-16T11:56:52;22.10;99.90
11961;DHT22;6040;49.358;11.140;2022-10-16T11:59:26;22.40;99.90
11961;DHT22;6040;49.358;11.140;2022-10-16T12:01:58;22.40;99.90
11961;DHT22;6040;49.358;11.140;2022-10-16T12:04:36;22.70;99.90
11961;DHT22;6040;49.358;11.140;2022-10-16T12:07:14;23.10;99.90
11961;DHT22;6040;49.358;11.140;2022-10-16T12:09:42;23.20;99.90
11961;DHT22;6040;49.358;11.140;2022-10-16T12:15:19;22.50;99.90
11961;DHT22;6040;49.358;11.140;2022-10-16T12:17:46;22.30;99.90
11961;DHT22;6040;49.358;11.140;2022-10-16T12:20:25;22.50;99.90
11961;DHT22;6040;49.358;11.140;2022-10-16T12:22:54;22.80;99.90
11961;DHT22;6040;49.358;11.140;2022-10-16T12:25:26;23.10;99.90
11961;DHT22;6040;49.358;11.140;2022-10-16T12:28:05;23.20;99.90
11961;DHT22;6040;49.358;11.140;2022-10-16T12:30:35;23.50;99.90
11961;DHT22;6040;49.358;11.140;2022-10-16T12:33:04;23.50;99.90
11961;DHT22;6040;49.358;11.140;2022-10-16T12:35:33;23.30;99.90
11961;DHT22;6040;49.358;11.140;2022-10-16T12:38:12;22.80;99.90
11961;DHT22;6040;49.358;11.140;2022-10-16T12:40:43;22.70;99.90
11961;DHT22;6040;49.358;11.140;2022-10-16T12:43:26;22.60;99.90
11961;DHT22;6040;49.358;11.140;2022-10-16T12:46:02;22.50;99.90
11961;DHT22;6040;49.358;11.140;2022-10-16T12:48:30;22.50;99.90
11961;DHT22;6040;49.358;11.140;2022-10-16T12:50:57;22.40;99.90
11961;DHT22;6040;49.358;11.140;2022-10-16T12:53:35;22.50;99.90
11961;DHT22;6040;49.358;11.140;2022-10-16T12:56:09;22.60;99.90
11961;DHT22;6040;49.358;11.140;2022-10-16T12:58:56;22.60;99.90
11961;DHT22;6040;49.358;11.140;2022-10-16T13:01:36;22.70;99.90
11961;DHT22;6040;49.358;11.140;2022-10-16T13:04:25;22.80;99.90
11961;DHT22;6040;49.358;11.140;2022-10-16T13:07:01;22.90;99.90
11961;DHT22;6040;49.358;11.140;2022-10-16T13:09:39;23.00;99.90
11961;DHT22;6040;49.358;11.140;2022-10-16T13:12:19;23.10;99.90
11961;DHT22;6040;49.358;11.140;2022-10-16T13:15:19;23.20;99.90
11961;DHT22;6040;49.358;11.140;2022-10-16T13:17:56;23.40;99.90
11961;DHT22;6040;49.358;11.140;2022-10-16T13:20:30;23.20;99.90
11961;DHT22;6040;49.358;11.140;2022-10-16T13:23:07;23.00;99.90
11961;DHT22;6040;49.358;11.140;2022-10-16T13:25:47;23.10;99.90
11961;DHT22;6040;49.358;11.140;2022-10-16T13:28:19;23.10;99.90
11961;DHT22;6040;49.358;11.140;2022-10-16T13:30:52;22.90;99.90
11961;DHT22;6040;49.358;11.140;2022-10-16T13:33:30;22.80;99.90
11961;DHT22;6040;49.358;11.140;2022-10-16T13:35:57;22.60;99.90
11961;DHT22;6040;49.358;11.140;2022-10-16T13:38:26;22.40;99.90
11961;DHT22;6040;49.358;11.140;2022-10-16T13:40:55;22.40;99.90
11961;DHT22;6040;49.358;11.140;2022-10-16T13:43:26;22.50;99.90
11961;DHT22;6040;49.358;11.140;2022-10-16T13:45:58;22.60;99.90
11961;DHT22;6040;49.358;11.140;2022-10-16T13:48:27;22.60;99.90
11961;DHT22;6040;49.358;11.140;2022-10-16T13:51:05;22.70;99.90
11961;DHT22;6040;49.358;11.140;2022-10-16T13:53:33;22.70;99.90
11961;DHT22;6040;49.358;11.140;2022-10-16T13:56:03;22.80;99.90
11961;DHT22;6040;49.358;11.140;2022-10-16T13:58:30;22.80;99.90
11961;DHT22;6040;49.358;11.140;2022-10-16T14:00:59;22.80;99.90
11961;DHT22;6040;49.358;11.140;2022-10-16T14:03:28;22.80;99.90
11961;DHT22;6040;49.358;11.140;2022-10-16T14:05:58;22.70;99.90
11961;DHT22;6040;49.358;11.140;2022-10-16T14:08:26;22.50;99.90
11961;DHT22;6040;49.358;11.140;2022-10-16T14:10:56;22.50;99.90
11961;DHT22;6040;49.358;11.140;2022-10-16T14:13:29;22.40;99.90
11961;DHT22;6040;49.358;11.140;2022-10-16T14:15:59;22.40;99.90
11961;DHT22;6040;49.358;11.140;2022-10-16T14:18:30;22.30;99.90
11961;DHT22;6040;49.358;11.140;2022-10-16T14:21:03;22.20;99.90
11961;DHT22;6040;49.358;11.140;2022-10-16T14:23:31;22.20;99.90
11961;DHT22;6040;49.358;11.140;2022-10-16T14:26:16;22.10;99.90
11961;DHT22;6040;49.358;11.140;2022-10-16T14:28:43;21.90;99.90
11961;DHT22;6040;49.358;11.140;2022-10-16T14:31:31;22.00;99.90
11961;DHT22;6040;49.358;11.140;2022-10-16T14:34:00;21.90;99.90
11961;DHT22;6040;49.358;11.140;2022-10-16T14:36:28;21.90;99.90
11961;DHT22;6040;49.358;11.140;2022-10-16T14:39:01;21.80;99.90
11961;DHT22;6040;49.358;11.140;2022-10-16T14:41:29;21.80;99.90
11961;DHT22;6040;49.358;11.140;2022-10-16T14:44:01;21.80;99.90
11961;DHT22;6040;49.358;11.140;2022-10-16T14:46:32;21.70;99.90
11961;DHT22;6040;49.358;11.140;2022-10-16T14:49:04;21.60;99.90
11961;DHT22;6040;49.358;11.140;2022-10-16T14:51:41;21.50;99.90
11961;DHT22;6040;49.358;11.140;2022-10-16T14:54:10;21.50;99.90
11961;DHT22;6040;49.358;11.140;2022-10-16T14:56:45;21.40;99.90
11961;DHT22;6040;49.358;11.140;2022-10-16T14:59:16;21.30;99.90
11961;DHT22;6040;49.358;11.140;2022-10-16T15:01:44;21.20;99.90
11961;DHT22;6040;49.358;11.140;2022-10-16T15:04:13;21.10;99.90
11961;DHT22;6040;49.358;11.140;2022-10-16T15:06:41;21.00;99.90
11961;DHT22;6040;49.358;11.140;2022-10-16T15:09:08;20.90;99.90
11961;DHT22;6040;49.358;11.140;2022-10-16T15:11:35;20.90;99.90
11961;DHT22;6040;49.358;11.140;2022-10-16T15:14:02;20.70;99.90
11961;DHT22;6040;49.358;11.140;2022-10-16T15:16:30;20.70;99.90
11961;DHT22;6040;49.358;11.140;2022-10-16T15:18:57;20.60;99.90
11961;DHT22;6040;49.358;11.140;2022-10-16T15:21:28;20.50;99.90
11961;DHT22;6040;49.358;11.140;2022-10-16T15:23:55;20.40;99.90
11961;DHT22;6040;49.358;11.140;2022-10-16T15:26:23;20.40;99.90
11961;DHT22;6040;49.358;11.140;2022-10-16T15:28:50;20.30;99.90
11961;DHT22;6040;49.358;11.140;2022-10-16T15:31:16;20.20;99.90
11961;DHT22;6040;49.358;11.140;2022-10-16T15:33:43;20.20;99.90
11961;DHT22;6040;49.358;11.140;2022-10-16T15:36:13;20.10;99.90
11961;DHT22;6040;49.358;11.140;2022-10-16T15:38:41;20.00;99.90
11961;DHT22;6040;49.358;11.140;2022-10-16T15:41:08;19.90;99.90
11961;DHT22;6040;49.358;11.140;2022-10-16T15:43:35;19.80;99.90
11961;DHT22;6040;49.358;11.140;2022-10-16T15:46:03;19.80;99.90
11961;DHT22;6040;49.358;11.140;2022-10-16T15:48:32;19.70;99.90
11961;DHT22;6040;49.358;11.140;2022-10-16T15:50:59;19.60;99.90
11961;DHT22;6040;49.358;11.140;2022-10-16T15:53:26;19.60;99.90
11961;DHT22;6040;49.358;11.140;2022-10-16T15:55:54;19.50;99.90
11961;DHT22;6040;49.358;11.140;2022-10-16T15:58:21;19.40;99.90